createdAt,value
2018-07-05T00:01:07.480Z,53.09
2018-07-05T00:03:47.506Z,53.07
2018-07-05T00:06:27.849Z,53.24
2018-07-05T00:09:08.286Z,53.70
2018-07-05T00:11:48.689Z,53.30
2018-07-05T00:14:30.375Z,53.98
2018-07-05T00:17:10.519Z,53.94
2018-07-05T00:19:50.731Z,54.34
2018-07-05T00:22:31.147Z,55.41
2018-07-05T00:25:11.238Z,54.04
2018-07-05T00:27:51.443Z,54.82
2018-07-05T00:30:31.499Z,55.54
2018-07-05T00:33:11.729Z,54.96
2018-07-05T00:35:52.096Z,54.57
2018-07-05T00:38:32.308Z,55.18
2018-07-05T00:41:12.473Z,55.08
2018-07-05T00:43:52.544Z,55.89
2018-07-05T00:46:33.009Z,56.15
2018-07-05T00:49:13.202Z,55.80
2018-07-05T00:51:53.474Z,55.86
2018-07-05T00:54:33.758Z,55.89
2018-07-05T00:57:16.146Z,56.29
2018-07-05T00:59:56.291Z,57.82
2018-07-05T01:02:36.384Z,56.92
2018-07-05T01:05:16.448Z,57.01
2018-07-05T01:07:56.609Z,57.36
2018-07-05T01:10:37.109Z,56.96
2018-07-05T01:13:17.199Z,57.10
2018-07-05T01:15:57.308Z,57.59
2018-07-05T01:18:37.496Z,57.17
2018-07-05T01:21:18.043Z,57.34
2018-07-05T01:23:58.312Z,57.75
2018-07-05T01:26:38.580Z,57.39
2018-07-05T01:29:18.657Z,57.55
2018-07-05T01:31:59.429Z,57.53
2018-07-05T01:34:39.486Z,57.49
2018-07-05T01:37:19.749Z,57.57
2018-07-05T01:40:00.685Z,57.72
2018-07-05T01:42:41.563Z,58.31
2018-07-05T01:45:21.724Z,58.81
2018-07-05T01:48:02.109Z,59.15
2018-07-05T01:50:42.373Z,59.40
2018-07-05T01:53:22.598Z,59.59
2018-07-05T01:56:03.085Z,59.15
2018-07-05T01:58:43.215Z,59.63
2018-07-05T02:01:23.272Z,59.13
2018-07-05T02:04:03.462Z,59.79
2018-07-05T02:06:43.618Z,59.48
2018-07-05T02:09:23.840Z,59.49
2018-07-05T02:12:04.353Z,59.55
2018-07-05T02:14:44.761Z,59.55
2018-07-05T02:17:25.093Z,59.15
2018-07-05T02:20:05.229Z,58.93
2018-07-05T02:22:47.021Z,58.84
2018-07-05T02:25:27.313Z,58.93
2018-07-05T02:28:07.513Z,58.75
2018-07-05T02:30:47.766Z,58.93
2018-07-05T02:33:28.082Z,59.05
2018-07-05T02:36:08.172Z,59.08
2018-07-05T02:38:52.189Z,59.12
2018-07-05T02:41:32.302Z,59.21
2018-07-05T02:44:12.519Z,59.48
2018-07-05T02:46:52.713Z,59.73
2018-07-05T02:49:33.049Z,60.25
2018-07-05T02:52:13.247Z,60.25
2018-07-05T02:54:53.404Z,59.97
2018-07-05T02:57:33.494Z,60.66
2018-07-05T03:00:13.668Z,60.59
2018-07-05T03:02:53.879Z,60.54
2018-07-05T03:05:34.505Z,60.63
2018-07-05T03:08:14.601Z,60.51
2018-07-05T03:10:55.157Z,60.93
2018-07-05T03:13:35.222Z,60.79
2018-07-05T03:16:15.406Z,60.94
2018-07-05T03:18:55.530Z,61.31
2018-07-05T03:21:35.842Z,61.08
2018-07-05T03:24:16.296Z,61.82
2018-07-05T03:26:56.493Z,61.53
2018-07-05T03:29:36.722Z,61.89
2018-07-05T03:32:17.169Z,62.06
2018-07-05T03:34:57.432Z,62.31
2018-07-05T03:37:37.601Z,63.41
2018-07-05T03:40:17.829Z,62.69
2018-07-05T03:42:58.158Z,63.48
2018-07-05T03:45:38.301Z,64.57
2018-07-05T03:48:18.337Z,64.74
2018-07-05T03:50:58.569Z,64.38
2018-07-05T03:53:38.688Z,66.40
2018-07-05T03:56:19.141Z,63.91
2018-07-05T03:58:59.327Z,64.88
2018-07-05T04:01:39.526Z,67.48
2018-07-05T04:04:19.771Z,65.49
2018-07-05T04:07:00.663Z,65.09
2018-07-05T04:09:41.230Z,66.14
2018-07-05T04:12:21.368Z,65.59
2018-07-05T04:15:01.894Z,66.04
2018-07-05T04:17:42.440Z,66.47
2018-07-05T04:20:22.605Z,66.38
2018-07-05T04:23:03.058Z,68.07
2018-07-05T04:25:43.300Z,67.03
2018-07-05T04:28:23.529Z,66.80
2018-07-05T04:31:03.580Z,65.87
2018-07-05T04:33:43.694Z,65.79
2018-07-05T04:36:24.181Z,66.01
2018-07-05T04:39:04.292Z,67.40
2018-07-05T04:41:44.576Z,67.79
2018-07-05T04:44:24.921Z,65.94
2018-07-05T04:47:05.349Z,65.69
2018-07-05T04:49:45.445Z,65.43
2018-07-05T04:52:25.609Z,65.06
2018-07-05T04:55:06.137Z,63.90
2018-07-05T04:57:46.213Z,63.38
2018-07-05T05:00:26.434Z,62.32
2018-07-05T05:03:06.474Z,61.80
2018-07-05T05:05:46.689Z,61.30
2018-07-05T05:08:27.199Z,61.47
2018-07-05T05:11:07.417Z,60.98
2018-07-05T05:13:49.256Z,60.89
2018-07-05T05:16:29.370Z,60.40
2018-07-05T05:19:09.723Z,60.16
2018-07-05T05:21:50.211Z,59.79
2018-07-05T05:24:30.377Z,60.03
2018-07-05T05:27:10.581Z,59.67
2018-07-05T05:29:50.952Z,59.71
2018-07-05T05:32:31.029Z,59.77
2018-07-05T05:35:11.313Z,59.33
2018-07-05T05:37:51.401Z,58.73
2018-07-05T05:40:31.582Z,58.98
2018-07-05T05:43:11.682Z,58.59
2018-07-05T05:45:52.177Z,58.25
2018-07-05T05:48:32.378Z,57.86
2018-07-05T05:51:12.481Z,57.73
2018-07-05T05:53:52.557Z,57.50
2018-07-05T05:56:35.181Z,56.74
2018-07-05T05:59:15.640Z,55.57
2018-07-05T06:01:56.118Z,55.87
2018-07-05T06:04:36.559Z,55.59
2018-07-05T06:07:16.997Z,55.77
2018-07-05T06:09:57.134Z,55.45
2018-07-05T06:12:37.325Z,55.32
2018-07-05T06:15:17.492Z,55.27
2018-07-05T06:17:58.128Z,54.95
2018-07-05T06:20:38.257Z,54.98
2018-07-05T06:23:18.417Z,54.30
2018-07-05T06:25:58.607Z,54.09
2018-07-05T06:28:38.645Z,53.59
2018-07-05T06:31:18.940Z,53.36
2018-07-05T06:33:59.129Z,52.43
2018-07-05T06:36:39.217Z,51.78
2018-07-05T06:39:20.149Z,51.61
2018-07-05T06:42:00.445Z,50.73
2018-07-05T06:44:40.485Z,50.64
2018-07-05T06:47:20.901Z,50.46
2018-07-05T06:50:01.222Z,49.49
2018-07-05T06:52:41.469Z,49.31
2018-07-05T06:55:21.527Z,49.36
2018-07-05T06:58:01.655Z,48.60
2018-07-05T07:00:42.031Z,46.91
2018-07-05T07:03:22.178Z,47.26
2018-07-05T07:08:36.164Z,46.62
2018-07-05T07:11:16.362Z,44.53
2018-07-05T07:13:56.649Z,44.06
2018-07-05T07:16:36.704Z,43.74
2018-07-05T07:19:17.100Z,41.71
2018-07-05T07:21:57.258Z,40.82
2018-07-05T07:24:38.310Z,40.78
2018-07-05T07:27:18.342Z,39.11
2018-07-05T07:29:58.585Z,35.57
2018-07-05T07:32:38.809Z,37.44
2018-07-05T07:35:19.302Z,34.24
2018-07-05T07:37:59.426Z,35.82
2018-07-05T07:40:39.568Z,34.09
2018-07-05T07:43:07.551Z,33.63
2018-07-05T07:45:35.572Z,34.79
2018-07-05T07:48:04.071Z,33.46
2018-07-05T07:50:32.147Z,32.30
2018-07-05T07:53:00.123Z,32.28
2018-07-05T07:55:28.110Z,33.05
2018-07-05T07:57:56.033Z,32.89
2018-07-05T08:00:23.957Z,33.24
2018-07-05T08:02:52.019Z,31.64
2018-07-05T08:05:19.969Z,31.95
2018-07-05T08:07:47.964Z,31.66
2018-07-05T08:10:16.005Z,32.07
2018-07-05T08:12:44.042Z,32.15
2018-07-05T08:15:26.289Z,31.37
2018-07-05T08:17:54.257Z,31.57
2018-07-05T08:20:22.210Z,31.67
2018-07-05T08:22:50.325Z,31.47
2018-07-05T08:25:18.247Z,30.24
2018-07-05T08:27:46.321Z,29.99
2018-07-05T08:30:14.348Z,30.16
2018-07-05T08:32:42.257Z,29.85
2018-07-05T08:35:10.240Z,30.47
2018-07-05T08:37:38.736Z,30.41
2018-07-05T08:40:07.181Z,30.05
2018-07-05T08:42:35.189Z,30.27
2018-07-05T08:45:03.146Z,30.96
2018-07-05T08:47:31.217Z,29.61
2018-07-05T08:49:59.669Z,29.28
2018-07-05T08:52:28.506Z,29.12
2018-07-05T08:54:59.113Z,29.35
2018-07-05T08:57:28.783Z,28.17
2018-07-05T08:59:59.841Z,28.51
2018-07-05T09:02:29.544Z,28.43
2018-07-05T09:04:58.751Z,26.08
2018-07-05T09:07:26.769Z,26.35
2018-07-05T09:09:54.730Z,26.52
2018-07-05T09:12:22.745Z,26.73
2018-07-05T09:14:51.114Z,26.09
2018-07-05T09:17:19.118Z,23.48
2018-07-05T09:19:47.240Z,23.53
2018-07-05T09:22:15.254Z,24.53
2018-07-05T09:24:43.188Z,23.43
2018-07-05T09:27:11.137Z,24.41
2018-07-05T09:29:39.137Z,24.75
2018-07-05T09:32:07.209Z,24.92
2018-07-05T09:34:35.418Z,23.88
2018-07-05T09:37:03.457Z,22.89
2018-07-05T09:39:31.567Z,23.19
2018-07-05T09:41:59.481Z,22.90
2018-07-05T09:44:27.455Z,22.67
2018-07-05T09:46:55.575Z,21.31
2018-07-05T09:49:23.573Z,20.94
2018-07-05T09:51:51.542Z,20.11
2018-07-05T09:54:19.469Z,20.63
2018-07-05T09:56:47.401Z,19.68
2018-07-05T09:59:15.362Z,20.47
2018-07-05T10:01:43.287Z,21.15
2018-07-05T10:04:11.262Z,20.37
2018-07-05T10:06:39.195Z,18.92
2018-07-05T10:09:07.322Z,19.45
2018-07-05T10:11:35.517Z,21.03
2018-07-05T10:14:03.458Z,19.81
2018-07-05T10:16:31.442Z,19.95
2018-07-05T10:18:59.369Z,21.37
2018-07-05T10:21:27.607Z,20.39
2018-07-05T10:23:56.046Z,19.62
2018-07-05T10:26:24.066Z,19.67
2018-07-05T10:29:04.304Z,19.90
2018-07-05T10:31:44.470Z,20.25
2018-07-05T10:34:12.449Z,20.38
2018-07-05T10:36:40.401Z,21.35
2018-07-05T10:39:08.434Z,21.61
2018-07-05T10:41:48.874Z,21.67
2018-07-05T10:44:29.356Z,21.13
2018-07-05T10:47:09.508Z,21.07
2018-07-05T10:49:49.742Z,21.54
2018-07-05T10:52:30.386Z,20.54
2018-07-05T10:55:10.498Z,20.75
2018-07-05T10:57:50.774Z,20.47
2018-07-05T11:00:31.328Z,20.48
2018-07-05T11:03:11.501Z,20.45
2018-07-05T11:05:53.457Z,19.89
2018-07-05T11:08:33.726Z,20.25
2018-07-05T11:11:14.164Z,20.06
2018-07-05T11:13:54.407Z,20.60
2018-07-05T11:16:34.672Z,20.94
2018-07-05T11:19:15.252Z,20.03
2018-07-05T11:21:55.352Z,20.13
2018-07-05T11:24:35.957Z,19.78
2018-07-05T11:27:16.233Z,20.21
2018-07-05T11:29:56.529Z,20.05
2018-07-05T11:32:37.628Z,19.92
2018-07-05T11:35:17.798Z,19.89
2018-07-05T11:37:58.260Z,19.19
2018-07-05T11:40:38.582Z,19.46
2018-07-05T11:43:19.220Z,19.68
2018-07-05T11:45:59.322Z,19.05
2018-07-05T11:48:42.210Z,20.05
2018-07-05T11:51:22.492Z,19.48
2018-07-05T11:54:02.682Z,20.28
2018-07-05T11:56:43.604Z,19.65
2018-07-05T11:59:24.811Z,19.26
2018-07-05T12:02:05.387Z,19.20
2018-07-05T12:04:45.937Z,19.27
2018-07-05T12:07:26.230Z,19.17
2018-07-05T12:10:06.529Z,19.40
2018-07-05T12:12:46.665Z,19.23
2018-07-05T12:15:26.802Z,18.66
2018-07-05T12:18:07.785Z,19.66
2018-07-05T12:20:48.245Z,19.39
2018-07-05T12:23:28.483Z,19.70
2018-07-05T12:26:08.921Z,20.13
2018-07-05T12:28:49.019Z,19.87
2018-07-05T12:31:29.415Z,19.55
2018-07-05T12:34:09.569Z,19.63
2018-07-05T12:36:49.889Z,19.69
2018-07-05T12:39:30.341Z,19.49
2018-07-05T12:42:10.699Z,19.15
2018-07-05T12:44:51.170Z,19.35
2018-07-05T12:47:31.259Z,19.11
2018-07-05T12:50:11.547Z,19.18
2018-07-05T12:52:51.761Z,18.69
2018-07-05T12:55:32.249Z,18.73
2018-07-05T12:58:12.464Z,19.22
2018-07-05T13:00:52.629Z,19.21
2018-07-05T13:03:32.701Z,18.78
2018-07-05T13:06:12.982Z,18.73
2018-07-05T13:08:53.261Z,18.62
2018-07-05T13:11:33.446Z,18.88
2018-07-05T13:14:13.687Z,19.04
2018-07-05T13:16:54.541Z,19.60
2018-07-05T13:19:34.639Z,18.83
2018-07-05T13:22:15.256Z,19.00
2018-07-05T13:24:55.352Z,18.86
2018-07-05T13:27:35.477Z,18.80
2018-07-05T13:30:15.675Z,18.59
2018-07-05T13:32:55.829Z,18.95
2018-07-05T13:35:37.800Z,19.09
2018-07-05T13:38:18.426Z,19.44
2018-07-05T13:40:58.586Z,19.20
2018-07-05T13:43:38.845Z,19.36
2018-07-05T13:46:19.338Z,19.54
2018-07-05T13:48:59.497Z,19.57
2018-07-05T13:51:39.565Z,19.53
2018-07-05T13:54:19.763Z,19.63
2018-07-05T13:57:00.720Z,19.54
2018-07-05T13:59:40.989Z,20.16
2018-07-05T14:02:21.283Z,19.47
2018-07-05T14:05:01.462Z,19.10
2018-07-05T14:07:41.556Z,19.82
2018-07-05T14:10:21.717Z,20.16
2018-07-05T14:13:02.243Z,20.71
2018-07-05T14:15:42.498Z,20.84
2018-07-05T14:18:22.661Z,21.08
2018-07-05T14:21:03.363Z,20.75
2018-07-05T14:23:43.558Z,21.23
2018-07-05T14:26:23.685Z,21.64
2018-07-05T14:29:03.905Z,21.48
2018-07-05T14:31:44.251Z,21.48
2018-07-05T14:34:24.615Z,21.65
2018-07-05T14:37:04.884Z,22.24
2018-07-05T14:39:46.738Z,22.08
2018-07-05T14:42:27.485Z,22.31
2018-07-05T14:45:07.703Z,22.57
2018-07-05T14:47:48.155Z,22.80
2018-07-05T14:50:28.254Z,23.49
2018-07-05T14:53:08.393Z,23.34
2018-07-05T14:55:48.623Z,23.28
2018-07-05T14:58:28.892Z,22.92
2018-07-05T15:01:09.198Z,22.54
2018-07-05T15:03:49.478Z,22.42
2018-07-05T15:06:29.754Z,23.10
2018-07-05T15:09:10.164Z,22.61
2018-07-05T15:11:50.298Z,22.97
2018-07-05T15:14:30.453Z,22.52
2018-07-05T15:17:10.575Z,22.57
2018-07-05T15:19:50.685Z,22.35
2018-07-05T15:22:31.712Z,23.13
2018-07-05T15:25:12.381Z,23.25
2018-07-05T15:27:52.443Z,23.38
2018-07-05T15:30:32.602Z,23.41
2018-07-05T15:33:12.673Z,23.24
2018-07-05T15:35:53.342Z,23.59
2018-07-05T15:38:33.396Z,23.52
2018-07-05T15:41:13.681Z,23.44
2018-07-05T15:43:54.153Z,24.05
2018-07-05T15:46:34.403Z,23.95
2018-07-05T15:49:14.482Z,24.15
2018-07-05T15:51:54.596Z,23.42
2018-07-05T15:54:34.669Z,23.56
2018-07-05T15:57:15.755Z,23.97
2018-07-05T15:59:56.083Z,23.92
2018-07-05T16:02:36.174Z,23.63
2018-07-05T16:05:18.249Z,23.52
2018-07-05T16:07:58.536Z,24.27
2018-07-05T16:10:38.705Z,24.09
2018-07-05T16:13:19.229Z,24.36
2018-07-05T16:15:59.401Z,24.20
2018-07-05T16:18:39.501Z,23.66
2018-07-05T16:21:19.881Z,23.81
2018-07-05T16:24:00.272Z,23.54
2018-07-05T16:26:40.333Z,23.91
2018-07-05T16:29:20.549Z,24.28
2018-07-05T16:32:00.594Z,24.58
2018-07-05T16:34:40.849Z,24.49
2018-07-05T16:37:21.278Z,25.01
2018-07-05T16:40:01.386Z,25.21
2018-07-05T16:42:41.585Z,25.87
2018-07-05T16:45:21.669Z,26.34
2018-07-05T16:48:03.509Z,26.31
2018-07-05T16:50:43.749Z,26.13
2018-07-05T16:53:24.217Z,26.64
2018-07-05T16:56:04.303Z,26.63
2018-07-05T16:58:44.488Z,26.54
2018-07-05T17:01:24.710Z,26.54
2018-07-05T17:04:05.303Z,27.55
2018-07-05T17:06:45.517Z,27.24
2018-07-05T17:09:25.705Z,27.27
2018-07-05T17:12:06.253Z,27.57
2018-07-05T17:14:46.366Z,27.25
2018-07-05T17:17:26.491Z,27.24
2018-07-05T17:20:07.111Z,27.37
2018-07-05T17:22:47.274Z,27.59
2018-07-05T17:25:27.457Z,27.06
2018-07-05T17:28:07.563Z,27.81
2018-07-05T17:30:49.653Z,27.87
2018-07-05T17:33:30.589Z,27.57
2018-07-05T17:36:10.639Z,27.77
2018-07-05T17:38:51.190Z,27.51
2018-07-05T17:41:31.398Z,27.49
2018-07-05T17:44:11.679Z,27.76
2018-07-05T17:46:52.019Z,28.02
2018-07-05T17:49:32.153Z,27.87
2018-07-05T17:52:12.257Z,28.26
2018-07-05T17:54:52.499Z,28.26
2018-07-05T17:57:32.590Z,27.90
2018-07-05T18:00:13.122Z,28.74
2018-07-05T18:02:53.393Z,28.70
2018-07-05T18:05:33.653Z,28.66
2018-07-05T18:08:13.733Z,29.28
2018-07-05T18:10:53.845Z,29.17
2018-07-05T18:13:36.149Z,29.83
2018-07-05T18:16:16.678Z,30.11
2018-07-05T18:18:57.076Z,30.17
2018-07-05T18:21:37.382Z,30.36
2018-07-05T18:24:17.737Z,31.04
2018-07-05T18:26:58.584Z,31.23
2018-07-05T18:29:38.934Z,31.55
2018-07-05T18:32:19.442Z,32.04
2018-07-05T18:34:59.656Z,31.85
2018-07-05T18:37:40.051Z,31.85
2018-07-05T18:40:20.563Z,30.81
2018-07-05T18:43:00.807Z,31.37
2018-07-05T18:45:41.849Z,31.37
2018-07-05T18:48:22.390Z,31.20
2018-07-05T18:51:02.497Z,31.90
2018-07-05T18:53:42.695Z,33.63
2018-07-05T18:56:23.105Z,33.62
2018-07-05T18:59:03.389Z,33.93
2018-07-05T19:01:43.722Z,34.03
2018-07-05T19:04:24.269Z,33.75
2018-07-05T19:07:04.790Z,35.01
2018-07-05T19:09:45.531Z,34.81
2018-07-05T19:12:25.727Z,34.78
2018-07-05T19:15:06.662Z,35.11
2018-07-05T19:17:47.393Z,35.82
2018-07-05T19:20:27.861Z,35.68
2018-07-05T19:23:08.181Z,35.91
2018-07-05T19:25:48.755Z,37.07
2018-07-05T19:28:29.898Z,37.31
2018-07-05T19:31:10.729Z,37.20
2018-07-05T19:33:50.942Z,37.48
2018-07-05T19:36:34.004Z,38.11
2018-07-05T19:39:14.510Z,38.32
2018-07-05T19:41:55.418Z,38.42
2018-07-05T19:44:35.891Z,38.38
2018-07-05T19:47:16.461Z,38.43
2018-07-05T19:49:56.837Z,38.46
2018-07-05T19:52:37.522Z,39.49
2018-07-05T19:55:17.741Z,39.40
2018-07-05T19:57:58.515Z,39.69
2018-07-05T20:00:39.044Z,40.08
2018-07-05T20:03:19.803Z,39.52
2018-07-05T20:06:00.358Z,38.86
2018-07-05T20:08:41.006Z,40.35
2018-07-05T20:11:21.720Z,43.13
2018-07-05T20:14:02.393Z,41.99
2018-07-05T20:16:42.680Z,41.54
2018-07-05T20:19:23.533Z,41.94
2018-07-05T20:22:03.931Z,41.68
2018-07-05T20:24:44.613Z,41.65
2018-07-05T20:27:25.313Z,41.65
2018-07-05T20:30:05.703Z,41.61
2018-07-05T20:32:46.177Z,41.28
2018-07-05T20:35:26.700Z,41.69
2018-07-05T20:38:07.359Z,42.55
2018-07-05T20:40:47.939Z,42.94
2018-07-05T20:43:28.370Z,42.45
2018-07-05T20:46:08.586Z,43.68
2018-07-05T20:48:49.026Z,43.62
2018-07-05T20:51:29.478Z,43.24
2018-07-05T20:54:09.781Z,44.72
2018-07-05T20:56:51.020Z,46.91
2018-07-05T20:59:33.930Z,47.21
2018-07-05T21:02:14.404Z,47.60
2018-07-05T21:04:54.683Z,46.76
2018-07-05T21:07:34.985Z,48.34
2018-07-05T21:10:16.473Z,48.07
2018-07-05T21:12:56.879Z,49.16
2018-07-05T21:15:37.441Z,48.62
2018-07-05T21:18:17.909Z,48.74
2018-07-05T21:20:58.305Z,49.07
2018-07-05T21:23:38.741Z,49.07
2018-07-05T21:26:19.213Z,49.79
2018-07-05T21:28:59.524Z,49.60
2018-07-05T21:31:39.707Z,49.08
2018-07-05T21:34:19.971Z,49.31
2018-07-05T21:37:00.266Z,49.34
2018-07-05T21:39:40.528Z,49.28
2018-07-05T21:42:21.682Z,49.29
2018-07-05T21:45:02.524Z,49.69
2018-07-05T21:47:42.773Z,50.77
2018-07-05T21:50:23.417Z,50.99
2018-07-05T21:53:03.641Z,50.60
2018-07-05T21:55:44.231Z,50.38
2018-07-05T21:58:24.440Z,51.62
2018-07-05T22:01:04.691Z,51.26
2018-07-05T22:03:45.125Z,51.61
2018-07-05T22:06:25.261Z,52.82
2018-07-05T22:09:06.224Z,54.87
2018-07-05T22:11:46.914Z,55.05
2018-07-05T22:14:27.496Z,54.91
2018-07-05T22:17:12.824Z,54.36
2018-07-05T22:22:04.164Z,56.43
2018-07-05T22:24:49.257Z,53.31
2018-07-05T22:27:34.417Z,53.41
2018-07-05T22:30:19.639Z,53.01
2018-07-05T22:33:00.095Z,53.55
2018-07-05T22:35:40.197Z,53.12
2018-07-05T22:38:20.419Z,53.64
2018-07-05T22:41:00.646Z,55.54
2018-07-05T22:43:41.130Z,55.31
2018-07-05T22:46:21.349Z,56.51
2018-07-05T22:49:01.527Z,55.39
2018-07-05T22:51:41.645Z,54.93
2018-07-05T22:54:21.697Z,55.15
2018-07-05T22:57:02.078Z,55.44
2018-07-05T22:59:42.297Z,55.86
2018-07-05T23:02:22.398Z,55.69
2018-07-05T23:05:02.494Z,56.98
2018-07-05T23:07:42.665Z,56.66
2018-07-05T23:10:23.718Z,56.82
2018-07-05T23:13:04.497Z,56.54
2018-07-05T23:15:44.541Z,56.66
2018-07-05T23:18:24.683Z,56.91
2018-07-05T23:21:05.188Z,57.16
2018-07-05T23:23:45.425Z,56.43
2018-07-05T23:26:25.513Z,56.90
2018-07-05T23:29:05.570Z,56.65
2018-07-05T23:31:45.664Z,57.38
2018-07-05T23:34:26.145Z,57.26
2018-07-05T23:37:06.345Z,57.06
2018-07-05T23:39:46.465Z,57.35
2018-07-05T23:42:26.669Z,57.93
2018-07-05T23:45:06.897Z,57.82
2018-07-05T23:47:47.177Z,59.86
2018-07-05T23:50:27.389Z,59.84
2018-07-05T23:53:09.242Z,59.16
2018-07-05T23:55:49.338Z,60.46
2018-07-05T23:58:29.418Z,59.83
